Time;durP1;ratioP1;P1;durP2;ratioP2;P2;SDS_P1;SDS_P2;PMS_P1;PMS_P2;Temp;Humidity;BMP_temperature;BMP_pressure;BME280_temperature;BME280_humidity;BME280_pressure;Samples;Min_cycle;Max_cycle;Signal;HPM_P1;HPM_P2
2021/06/26 00:00:12;;;;;;;10.90;4.22;;;15.10;99.90;;;;;;5083098;28;20032;-60
2021/06/26 00:02:39;;;;;;;6.63;4.00;;;15.20;99.90;;;;;;5092146;28;20514;-60
2021/06/26 00:05:07;;;;;;;6.10;4.10;;;15.10;99.90;;;;;;5093848;28;20043;-62
2021/06/26 00:07:33;;;;;;;6.55;4.22;;;15.10;99.90;;;;;;5085324;28;20032;-60
2021/06/26 00:09:58;;;;;;;5.72;4.18;;;15.10;99.90;;;;;;5088440;28;20028;-60
2021/06/26 00:12:24;;;;;;;6.45;4.10;;;15.10;99.90;;;;;;5084272;28;20032;-62
2021/06/26 00:14:51;;;;;;;6.95;3.83;;;15.10;99.90;;;;;;5085649;28;20427;-61
2021/06/26 00:17:17;;;;;;;9.18;4.22;;;15.00;99.90;;;;;;5087932;28;20036;-60
2021/06/26 00:19:43;;;;;;;6.93;4.25;;;15.00;99.90;;;;;;5093013;28;20028;-60
2021/06/26 00:22:09;;;;;;;6.82;4.43;;;15.00;99.90;;;;;;5090571;28;20032;-59
2021/06/26 00:24:35;;;;;;;8.35;4.22;;;15.00;99.90;;;;;;5088061;28;20036;-61
2021/06/26 00:27:00;;;;;;;6.88;4.35;;;15.00;99.90;;;;;;5092035;28;20118;-59
2021/06/26 00:29:26;;;;;;;6.07;4.25;;;15.10;99.90;;;;;;5093008;28;20036;-61
2021/06/26 00:31:52;;;;;;;8.43;4.47;;;15.00;99.90;;;;;;5086877;28;20498;-60
2021/06/26 00:34:18;;;;;;;7.85;4.32;;;15.00;99.90;;;;;;5085104;28;20739;-61
2021/06/26 00:36:43;;;;;;;8.30;4.10;;;15.00;99.90;;;;;;5091621;28;20470;-60
2021/06/26 00:39:09;;;;;;;5.63;3.67;;;15.00;99.90;;;;;;5091673;28;20428;-61
2021/06/26 00:41:35;;;;;;;6.63;3.97;;;15.00;99.90;;;;;;5091626;28;20032;-60
2021/06/26 00:44:02;;;;;;;6.80;3.92;;;15.00;99.90;;;;;;5092944;28;20458;-62
2021/06/26 00:46:27;;;;;;;5.32;3.70;;;15.00;99.90;;;;;;5084628;28;20028;-60
2021/06/26 00:48:53;;;;;;;9.23;3.88;;;15.00;99.90;;;;;;5070227;28;20031;-59
2021/06/26 00:51:19;;;;;;;8.73;4.20;;;14.90;99.90;;;;;;5080536;28;20040;-58
2021/06/26 00:53:45;;;;;;;7.07;3.85;;;15.00;99.90;;;;;;5092106;28;20035;-59
2021/06/26 00:56:13;;;;;;;7.60;4.20;;;14.90;99.90;;;;;;5091593;28;20454;-59
2021/06/26 00:58:39;;;;;;;12.00;4.13;;;14.90;99.90;;;;;;5091866;28;20074;-60
2021/06/26 01:01:05;;;;;;;9.32;4.32;;;14.90;99.90;;;;;;5078271;28;20029;-61
2021/06/26 01:03:30;;;;;;;9.85;4.80;;;14.90;99.90;;;;;;5091623;28;20035;-61
2021/06/26 01:05:56;;;;;;;7.65;5.00;;;14.90;99.90;;;;;;5091857;28;20481;-61
2021/06/26 01:08:25;;;;;;;7.30;4.13;;;14.90;99.90;;;;;;5087958;28;20025;-61
2021/06/26 01:10:50;;;;;;;11.02;4.78;;;15.00;99.90;;;;;;5090834;28;20386;-60
2021/06/26 01:13:16;;;;;;;8.63;4.72;;;14.90;99.90;;;;;;5087924;28;20025;-61
2021/06/26 01:15:42;;;;;;;7.40;4.97;;;14.90;99.90;;;;;;5086170;28;20070;-61
2021/06/26 01:18:08;;;;;;;7.88;4.93;;;14.90;99.90;;;;;;5077958;28;20021;-61
2021/06/26 01:20:35;;;;;;;8.63;4.90;;;15.00;99.90;;;;;;5083737;28;20024;-61
2021/06/26 01:23:01;;;;;;;8.68;5.20;;;15.00;99.90;;;;;;5078284;28;20111;-64
2021/06/26 01:25:29;;;;;;;8.30;5.22;;;15.00;99.90;;;;;;5092193;28;20106;-59
2021/06/26 01:27:57;;;;;;;9.35;5.80;;;15.10;99.90;;;;;;5083071;28;20088;-60
2021/06/26 01:30:32;;;;;;;13.85;6.53;;;15.10;99.90;;;;;;5091257;28;20409;-61
2021/06/26 01:32:58;;;;;;;11.10;6.32;;;15.10;99.90;;;;;;5090248;28;20032;-61
2021/06/26 01:35:24;;;;;;;11.10;5.68;;;15.10;99.90;;;;;;5091857;28;20028;-61
2021/06/26 01:37:50;;;;;;;10.85;6.90;;;15.10;99.90;;;;;;5083345;28;20074;-61
2021/06/26 01:40:18;;;;;;;14.45;7.20;;;15.20;99.90;;;;;;5091054;28;20474;-60
2021/06/26 01:42:44;;;;;;;11.27;6.43;;;15.20;99.90;;;;;;5079178;28;20032;-60
2021/06/26 01:45:10;;;;;;;12.77;7.68;;;15.10;99.90;;;;;;5081226;28;20024;-60
2021/06/26 01:47:36;;;;;;;12.38;7.10;;;15.10;99.90;;;;;;5090623;28;20039;-61
2021/06/26 01:50:02;;;;;;;12.85;6.78;;;15.10;99.90;;;;;;5082720;28;20028;-60
2021/06/26 01:52:28;;;;;;;14.30;6.75;;;15.10;99.90;;;;;;5080462;28;20066;-60
2021/06/26 01:54:54;;;;;;;15.18;8.00;;;15.10;99.90;;;;;;5083172;28;20458;-60
2021/06/26 01:57:20;;;;;;;11.98;7.05;;;15.10;99.90;;;;;;5083395;28;20140;-62
2021/06/26 01:59:46;;;;;;;13.20;7.38;;;15.10;99.90;;;;;;5074067;28;20020;-60
2021/06/26 02:02:11;;;;;;;13.38;7.47;;;15.00;99.90;;;;;;5075466;28;20139;-62
2021/06/26 02:04:37;;;;;;;14.63;7.93;;;15.00;99.90;;;;;;5086486;28;20119;-62
2021/06/26 02:07:03;;;;;;;12.38;7.68;;;14.90;99.90;;;;;;5087945;28;20386;-61
2021/06/26 02:09:29;;;;;;;14.35;7.65;;;14.90;99.90;;;;;;5080531;28;20040;-59
2021/06/26 02:11:54;;;;;;;11.63;7.85;;;14.90;99.90;;;;;;5088615;28;20040;-63
2021/06/26 02:14:20;;;;;;;13.30;8.27;;;14.90;99.90;;;;;;5078855;28;20020;-61
2021/06/26 02:16:46;;;;;;;13.52;7.68;;;14.90;99.90;;;;;;5089246;28;20043;-60
2021/06/26 02:19:11;;;;;;;13.80;7.40;;;14.80;99.90;;;;;;5090681;28;20042;-60
2021/06/26 02:21:37;;;;;;;14.45;7.72;;;14.80;99.90;;;;;;5090477;28;20154;-61
2021/06/26 02:24:03;;;;;;;12.60;7.75;;;14.80;99.90;;;;;;5090687;28;20355;-64
2021/06/26 02:26:29;;;;;;;13.25;7.55;;;14.80;99.90;;;;;;5088727;28;20036;-60
2021/06/26 02:28:55;;;;;;;14.52;7.78;;;14.80;99.90;;;;;;5084343;28;20043;-60
2021/06/26 02:31:20;;;;;;;13.85;7.80;;;14.80;99.90;;;;;;5079605;28;20084;-58
2021/06/26 02:33:46;;;;;;;14.15;7.43;;;14.80;99.90;;;;;;5075881;28;20032;-62
2021/06/26 02:36:12;;;;;;;16.67;7.55;;;14.70;99.90;;;;;;5090544;28;20032;-59
2021/06/26 02:38:37;;;;;;;17.73;8.05;;;14.70;99.90;;;;;;5088454;28;20040;-60
2021/06/26 02:41:03;;;;;;;14.55;8.07;;;14.70;99.90;;;;;;5070520;28;20056;-60
2021/06/26 02:43:29;;;;;;;16.27;7.85;;;14.70;99.90;;;;;;5082448;28;20032;-59
2021/06/26 02:45:54;;;;;;;14.73;8.10;;;14.70;99.90;;;;;;5090114;28;20030;-59
2021/06/26 02:48:20;;;;;;;16.63;7.47;;;14.70;99.90;;;;;;5089651;28;20154;-60
2021/06/26 02:50:46;;;;;;;17.38;7.60;;;14.60;99.90;;;;;;5088237;28;20035;-59
2021/06/26 02:53:11;;;;;;;16.10;7.28;;;14.70;99.90;;;;;;5077357;28;20024;-60
2021/06/26 02:55:37;;;;;;;16.27;8.25;;;14.60;99.90;;;;;;5086577;28;20035;-59
2021/06/26 02:58:03;;;;;;;16.13;7.93;;;14.60;99.90;;;;;;5089025;28;20443;-59
2021/06/26 03:00:29;;;;;;;15.57;7.63;;;14.60;99.90;;;;;;5086209;28;20126;-62
2021/06/26 03:02:54;;;;;;;17.70;8.82;;;14.60;99.90;;;;;;5080417;28;20107;-63
2021/06/26 03:05:20;;;;;;;16.52;9.15;;;14.60;99.90;;;;;;5080819;28;20060;-57
2021/06/26 03:07:54;;;;;;;19.17;8.68;;;14.60;99.90;;;;;;5078421;28;20040;-59
2021/06/26 03:10:20;;;;;;;20.40;9.35;;;14.60;99.90;;;;;;5094325;28;20036;-61
2021/06/26 03:12:46;;;;;;;18.17;8.65;;;14.70;99.90;;;;;;5088105;28;20420;-60
2021/06/26 03:15:13;;;;;;;21.27;8.52;;;14.70;99.90;;;;;;5092572;28;20522;-60
2021/06/26 03:17:39;;;;;;;16.42;9.30;;;14.70;99.90;;;;;;5090303;28;20521;-60
2021/06/26 03:20:06;;;;;;;19.70;10.02;;;14.70;99.90;;;;;;5093825;28;20028;-60
2021/06/26 03:22:32;;;;;;;18.38;9.75;;;14.60;99.90;;;;;;5079700;28;20039;-60
2021/06/26 03:24:58;;;;;;;20.10;9.18;;;14.60;99.90;;;;;;5081673;28;20024;-60
2021/06/26 03:27:23;;;;;;;21.95;10.38;;;14.60;99.90;;;;;;5093475;28;20702;-60
2021/06/26 03:29:49;;;;;;;19.35;9.68;;;14.60;99.90;;;;;;5086115;28;20029;-59
2021/06/26 03:32:15;;;;;;;17.48;9.45;;;14.60;99.90;;;;;;5088510;28;20024;-59
2021/06/26 03:34:40;;;;;;;19.63;9.32;;;14.60;99.90;;;;;;5092508;28;20047;-60
2021/06/26 03:37:06;;;;;;;17.75;9.30;;;14.60;99.90;;;;;;5093378;28;20077;-60
2021/06/26 03:39:32;;;;;;;18.05;9.50;;;14.60;99.90;;;;;;5089253;28;20032;-59
2021/06/26 03:41:58;;;;;;;20.15;9.25;;;14.60;99.90;;;;;;5094408;28;20412;-60
2021/06/26 03:44:24;;;;;;;17.10;8.77;;;14.60;99.90;;;;;;5089962;28;20039;-60
2021/06/26 03:46:49;;;;;;;17.45;9.02;;;14.70;99.90;;;;;;5093481;28;20051;-63
2021/06/26 03:49:15;;;;;;;15.70;8.27;;;14.70;99.90;;;;;;5086083;28;20080;-60
2021/06/26 03:51:41;;;;;;;17.60;8.48;;;14.70;99.90;;;;;;5081691;28;20132;-62
2021/06/26 03:54:06;;;;;;;14.52;7.95;;;14.70;99.90;;;;;;5085166;28;20485;-59
2021/06/26 03:56:32;;;;;;;16.25;8.50;;;14.70;99.90;;;;;;5093892;28;20816;-59
2021/06/26 03:59:00;;;;;;;13.05;7.97;;;14.70;99.90;;;;;;5087679;28;20035;-59
2021/06/26 04:01:25;;;;;;;15.40;7.60;;;14.60;99.90;;;;;;5093332;28;20512;-60
2021/06/26 04:03:51;;;;;;;15.75;8.13;;;14.60;99.90;;;;;;5089944;28;20051;-60
2021/06/26 04:06:17;;;;;;;12.77;7.43;;;14.60;99.90;;;;;;5091269;28;20370;-59
2021/06/26 04:08:43;;;;;;;14.52;7.47;;;14.80;99.90;;;;;;5079012;28;20062;-60
2021/06/26 04:11:09;;;;;;;11.80;7.22;;;14.80;99.90;;;;;;5089137;28;20466;-58
2021/06/26 04:13:34;;;;;;;11.05;6.65;;;14.80;99.90;;;;;;5090704;28;20059;-61
2021/06/26 04:16:00;;;;;;;14.63;7.80;;;14.80;99.90;;;;;;5089393;28;20478;-59
2021/06/26 04:18:26;;;;;;;13.40;7.55;;;14.70;99.90;;;;;;5091601;28;20019;-61
2021/06/26 04:20:52;;;;;;;12.55;7.32;;;14.70;99.90;;;;;;5085223;28;20037;-60
2021/06/26 04:23:18;;;;;;;15.60;7.75;;;14.70;99.90;;;;;;5090238;28;20054;-61
2021/06/26 04:25:44;;;;;;;15.52;7.82;;;14.80;99.90;;;;;;5093190;28;20027;-58
2021/06/26 04:28:11;;;;;;;12.27;6.63;;;14.80;99.90;;;;;;5091112;28;20107;-60
2021/06/26 04:30:37;;;;;;;14.40;7.45;;;14.80;99.90;;;;;;5090120;28;20048;-59
2021/06/26 04:33:04;;;;;;;14.48;8.30;;;14.80;99.90;;;;;;5075513;28;20049;-62
2021/06/26 04:35:30;;;;;;;16.30;8.05;;;14.90;99.90;;;;;;5091887;28;20028;-60
2021/06/26 04:37:57;;;;;;;17.58;7.90;;;14.80;99.90;;;;;;5092382;28;20063;-61
2021/06/26 04:40:23;;;;;;;15.57;8.00;;;14.80;99.90;;;;;;5088489;28;20068;-62
2021/06/26 04:42:49;;;;;;;20.60;7.63;;;14.80;99.90;;;;;;5090606;28;20027;-60
2021/06/26 04:45:14;;;;;;;15.15;7.93;;;14.90;99.90;;;;;;5085949;28;20389;-59
2021/06/26 04:47:41;;;;;;;14.85;7.35;;;14.90;99.90;;;;;;5092325;28;20016;-60
2021/06/26 04:50:09;;;;;;;15.63;8.20;;;14.80;99.90;;;;;;5080337;28;20032;-58
2021/06/26 04:52:35;;;;;;;16.02;6.65;;;14.90;99.90;;;;;;5089425;28;20507;-60
2021/06/26 04:55:02;;;;;;;12.38;6.90;;;15.00;99.90;;;;;;5080406;28;20362;-60
2021/06/26 04:57:28;;;;;;;15.90;7.28;;;14.90;99.90;;;;;;5087717;28;20032;-60
2021/06/26 04:59:54;;;;;;;12.70;6.82;;;14.90;99.90;;;;;;5091000;28;20024;-60
2021/06/26 05:02:19;;;;;;;14.63;6.65;;;14.90;99.90;;;;;;5077867;28;20040;-60
2021/06/26 05:04:45;;;;;;;15.20;6.63;;;15.00;99.90;;;;;;5090068;28;20024;-60
2021/06/26 05:07:11;;;;;;;13.45;7.00;;;15.10;99.90;;;;;;5092600;28;20138;-60
2021/06/26 05:09:37;;;;;;;13.20;7.15;;;15.00;99.90;;;;;;5085675;28;20016;-61
2021/06/26 05:12:03;;;;;;;12.30;6.65;;;15.10;99.90;;;;;;5083344;28;20037;-58
2021/06/26 05:14:28;;;;;;;11.88;6.60;;;15.10;99.90;;;;;;5085987;28;20031;-59
2021/06/26 05:16:54;;;;;;;12.93;6.82;;;15.00;99.90;;;;;;5092185;28;20020;-59
2021/06/26 05:19:20;;;;;;;12.43;6.82;;;15.00;99.90;;;;;;5090589;28;20036;-60
2021/06/26 05:21:45;;;;;;;12.52;7.07;;;15.10;99.90;;;;;;5091547;28;20122;-59
2021/06/26 05:24:11;;;;;;;14.15;7.30;;;15.10;99.90;;;;;;5083636;28;20090;-58
2021/06/26 05:26:37;;;;;;;13.90;6.80;;;15.00;99.90;;;;;;5080030;28;20475;-58
2021/06/26 05:29:03;;;;;;;11.77;6.50;;;15.00;99.90;;;;;;5089110;28;20111;-59
2021/06/26 05:31:28;;;;;;;14.25;6.88;;;15.00;99.90;;;;;;5090596;28;20047;-59
2021/06/26 05:33:54;;;;;;;12.85;7.22;;;15.10;99.90;;;;;;5090140;28;20020;-60
2021/06/26 05:36:20;;;;;;;10.93;7.13;;;15.00;99.90;;;;;;5082863;28;20032;-60
2021/06/26 05:38:45;;;;;;;15.57;7.80;;;15.00;99.90;;;;;;5085503;28;20060;-61
2021/06/26 05:41:11;;;;;;;14.00;7.63;;;15.00;99.90;;;;;;5091587;28;20032;-59
2021/06/26 05:43:37;;;;;;;17.30;7.10;;;14.90;99.90;;;;;;5089617;28;20028;-58
2021/06/26 05:46:03;;;;;;;14.43;7.78;;;14.90;99.90;;;;;;5078246;28;20103;-60
2021/06/26 05:48:29;;;;;;;14.35;7.00;;;15.00;99.90;;;;;;5090731;28;20077;-60
2021/06/26 05:50:55;;;;;;;13.40;7.18;;;15.10;99.90;;;;;;5088548;28;20020;-59
2021/06/26 05:53:21;;;;;;;13.45;7.00;;;15.00;99.90;;;;;;5090114;28;20032;-61
2021/06/26 05:55:56;;;;;;;14.13;7.45;;;15.10;99.90;;;;;;5091463;28;20507;-60
2021/06/26 05:58:30;;;;;;;17.88;8.27;;;15.10;99.90;;;;;;5089411;28;20124;-60
2021/06/26 06:00:56;;;;;;;15.33;7.80;;;15.10;99.90;;;;;;5090293;28;20032;-59
2021/06/26 06:03:22;;;;;;;14.18;7.85;;;15.10;99.90;;;;;;5088670;28;20028;-60
2021/06/26 06:05:50;;;;;;;16.77;8.02;;;15.10;99.90;;;;;;5070037;28;20044;-60
2021/06/26 06:08:17;;;;;;;15.13;8.18;;;15.10;99.90;;;;;;5070261;28;20119;-61
2021/06/26 06:10:42;;;;;;;15.25;7.85;;;15.20;99.90;;;;;;5082258;28;20097;-59
2021/06/26 06:13:14;;;;;;;15.68;8.27;;;15.10;99.90;;;;;;5090427;28;20040;-61
2021/06/26 06:15:42;;;;;;;19.33;8.85;;;15.00;99.90;;;;;;5082561;28;20032;-59
2021/06/26 06:18:09;;;;;;;18.75;8.75;;;14.90;99.90;;;;;;5080626;28;20463;-61
2021/06/26 06:20:35;;;;;;;16.73;8.98;;;15.00;99.90;;;;;;5086861;28;20493;-59
2021/06/26 06:23:01;;;;;;;16.55;8.68;;;15.00;99.90;;;;;;5081119;28;20032;-58
2021/06/26 06:25:26;;;;;;;16.38;8.52;;;15.00;99.90;;;;;;5073635;28;20026;-60
2021/06/26 06:27:52;;;;;;;14.95;8.32;;;15.10;99.90;;;;;;5086476;28;20034;-59
2021/06/26 06:30:19;;;;;;;19.38;9.55;;;15.00;99.90;;;;;;5086431;28;20109;-61
2021/06/26 06:32:45;;;;;;;17.88;8.95;;;15.10;99.90;;;;;;5083446;28;20040;-58
2021/06/26 06:35:10;;;;;;;20.05;8.68;;;15.10;99.90;;;;;;5072218;28;20043;-60
2021/06/26 06:37:37;;;;;;;18.75;9.00;;;15.20;99.90;;;;;;5089769;28;20040;-59
2021/06/26 06:40:04;;;;;;;18.13;9.45;;;15.10;99.90;;;;;;5088751;28;20232;-59
2021/06/26 06:42:31;;;;;;;16.88;9.15;;;15.20;99.90;;;;;;5075159;28;20068;-61
2021/06/26 06:44:57;;;;;;;16.73;8.43;;;15.10;99.90;;;;;;5084594;28;20028;-62
2021/06/26 06:47:22;;;;;;;17.77;9.13;;;15.10;99.90;;;;;;5092601;28;20471;-60
2021/06/26 06:49:48;;;;;;;20.85;9.73;;;15.10;99.90;;;;;;5093348;28;20028;-58
2021/06/26 06:52:14;;;;;;;17.98;8.95;;;15.20;99.90;;;;;;5083563;28;20116;-61
2021/06/26 06:54:39;;;;;;;19.02;9.73;;;15.10;99.90;;;;;;5070768;28;20461;-59
2021/06/26 06:57:06;;;;;;;19.85;10.18;;;15.20;99.90;;;;;;5094085;28;20036;-59
2021/06/26 06:59:32;;;;;;;21.55;8.93;;;15.20;99.90;;;;;;5090332;28;20036;-62
2021/06/26 07:01:58;;;;;;;15.77;8.82;;;15.20;99.90;;;;;;5084288;28;20097;-60
2021/06/26 07:04:25;;;;;;;17.77;9.82;;;15.10;99.90;;;;;;5092795;28;20047;-59
2021/06/26 07:06:51;;;;;;;16.10;9.02;;;15.20;99.90;;;;;;5091620;28;20031;-60
2021/06/26 07:09:17;;;;;;;21.23;10.60;;;15.20;99.90;;;;;;5085457;28;20444;-59
2021/06/26 07:11:42;;;;;;;18.05;9.80;;;15.20;99.90;;;;;;5085858;28;20036;-60
2021/06/26 07:14:08;;;;;;;18.38;9.57;;;15.30;99.90;;;;;;5074326;28;20071;-60
2021/06/26 07:16:34;;;;;;;21.60;10.48;;;15.30;99.90;;;;;;5082214;28;20471;-60
2021/06/26 07:19:00;;;;;;;18.42;10.63;;;15.30;99.90;;;;;;5077907;28;20530;-58
2021/06/26 07:21:25;;;;;;;28.35;13.35;;;15.50;99.90;;;;;;5084657;28;20032;-60
2021/06/26 07:23:51;;;;;;;25.60;11.73;;;15.60;99.90;;;;;;5086694;28;20075;-61
2021/06/26 07:26:17;;;;;;;17.75;10.95;;;15.70;99.90;;;;;;5077381;28;20028;-59
2021/06/26 07:28:43;;;;;;;23.90;11.43;;;15.80;99.90;;;;;;5073561;28;20074;-60
2021/06/26 07:31:09;;;;;;;19.42;11.02;;;16.00;99.90;;;;;;5077444;28;20121;-59
2021/06/26 07:33:34;;;;;;;21.30;10.63;;;16.20;99.90;;;;;;5074496;28;20045;-59
2021/06/26 07:36:00;;;;;;;24.20;11.88;;;16.10;99.90;;;;;;5073748;28;20021;-59
2021/06/26 07:38:26;;;;;;;16.55;10.00;;;16.20;99.90;;;;;;5072165;28;20032;-61
2021/06/26 07:40:51;;;;;;;20.27;10.52;;;16.30;99.90;;;;;;5072668;28;20086;-60
2021/06/26 07:43:17;;;;;;;21.50;10.50;;;16.50;99.90;;;;;;5078952;28;20033;-61
2021/06/26 07:45:43;;;;;;;16.48;9.27;;;16.50;99.90;;;;;;5083165;28;20150;-63
2021/06/26 07:48:09;;;;;;;15.20;8.43;;;16.40;99.90;;;;;;5083505;28;20036;-61
2021/06/26 07:50:35;;;;;;;14.70;8.43;;;16.20;99.90;;;;;;5072258;28;20514;-61
2021/06/26 07:53:01;;;;;;;13.63;8.73;;;16.30;99.90;;;;;;5070021;28;20025;-62
2021/06/26 07:55:29;;;;;;;14.68;7.68;;;16.40;99.90;;;;;;5078282;28;20059;-60
2021/06/26 07:57:55;;;;;;;14.40;8.10;;;16.50;99.90;;;;;;5076511;28;20020;-62
2021/06/26 08:00:21;;;;;;;15.93;8.38;;;16.50;99.90;;;;;;5076031;28;20028;-61
2021/06/26 08:02:47;;;;;;;15.18;8.45;;;16.60;99.90;;;;;;5076054;28;20064;-59
2021/06/26 08:05:12;;;;;;;12.50;7.65;;;16.80;99.90;;;;;;5070843;28;20090;-61
2021/06/26 08:07:38;;;;;;;13.88;7.32;;;16.80;99.90;;;;;;5082270;28;20029;-61
2021/06/26 08:10:04;;;;;;;13.20;7.10;;;16.90;99.90;;;;;;5074908;28;20521;-60
2021/06/26 08:12:32;;;;;;;11.38;7.25;;;17.00;99.90;;;;;;5075349;28;20085;-61
2021/06/26 08:14:58;;;;;;;10.93;7.03;;;17.00;99.90;;;;;;5076421;28;20033;-61
2021/06/26 08:17:23;;;;;;;14.55;7.25;;;17.00;99.90;;;;;;5086903;28;20496;-60
2021/06/26 08:19:49;;;;;;;11.95;7.32;;;17.00;99.90;;;;;;5081587;28;20028;-60
2021/06/26 08:22:15;;;;;;;12.10;7.00;;;17.00;99.90;;;;;;5073352;28;20020;-62
2021/06/26 08:24:41;;;;;;;9.70;6.95;;;16.90;99.90;;;;;;5076666;28;20040;-62
2021/06/26 08:27:08;;;;;;;12.80;7.35;;;17.00;99.90;;;;;;5078591;28;20024;-62
2021/06/26 08:29:34;;;;;;;13.32;7.10;;;17.10;99.90;;;;;;5074119;28;20128;-61
2021/06/26 08:31:59;;;;;;;11.27;6.28;;;17.10;99.90;;;;;;5074527;28;20028;-61
2021/06/26 08:34:25;;;;;;;23.23;15.45;;;17.20;99.90;;;;;;5072968;28;20089;-60
2021/06/26 08:36:51;;;;;;;9.68;6.70;;;17.30;99.90;;;;;;5062564;28;20093;-61
2021/06/26 08:39:20;;;;;;;10.50;6.80;;;17.50;99.90;;;;;;5073606;28;20036;-61
2021/06/26 08:41:50;;;;;;;14.70;6.22;;;18.10;99.90;;;;;;5077731;28;20032;-61
2021/06/26 08:44:18;;;;;;;11.57;6.53;;;18.80;99.90;;;;;;5077774;28;20090;-63
2021/06/26 08:46:46;;;;;;;18.92;14.82;;;19.10;99.90;;;;;;5084797;28;20040;-59
2021/06/26 08:49:13;;;;;;;9.88;6.13;;;19.70;99.90;;;;;;5058557;28;20017;-60
2021/06/26 08:51:39;;;;;;;12.73;6.32;;;19.80;99.90;;;;;;5077720;28;20037;-59
2021/06/26 08:54:16;;;;;;;10.15;6.70;;;20.00;99.90;;;;;;5079250;28;20032;-59
2021/06/26 08:56:46;;;;;;;9.55;5.93;;;20.30;99.90;;;;;;5078935;28;20128;-60
2021/06/26 08:59:12;;;;;;;13.63;7.28;;;20.20;99.90;;;;;;5069094;28;20036;-61
2021/06/26 09:01:40;;;;;;;10.18;6.03;;;19.80;99.90;;;;;;5079236;28;20039;-60
2021/06/26 09:04:10;;;;;;;11.32;7.13;;;19.60;99.90;;;;;;5073410;28;20068;-60
2021/06/26 09:06:53;;;;;;;9.98;6.38;;;19.60;99.90;;;;;;5074075;28;20032;-59
2021/06/26 09:09:29;;;;;;;9.80;6.10;;;19.50;99.90;;;;;;5074184;28;20481;-59
2021/06/26 09:12:09;;;;;;;10.80;6.75;;;19.70;99.90;;;;;;5071246;28;20404;-60
2021/06/26 09:14:38;;;;;;;10.98;6.20;;;20.40;99.90;;;;;;5072156;28;20544;-60
2021/06/26 09:17:04;;;;;;;7.22;5.43;;;20.70;99.90;;;;;;5058077;28;20035;-59
2021/06/26 09:19:32;;;;;;;17.42;7.43;;;20.50;99.90;;;;;;5075691;28;20028;-60
2021/06/26 09:22:09;;;;;;;10.23;6.35;;;20.70;99.90;;;;;;5081073;28;20115;-60
2021/06/26 09:24:42;;;;;;;9.15;6.10;;;20.70;99.90;;;;;;5071871;28;20037;-60
2021/06/26 09:27:17;;;;;;;6.78;5.43;;;20.50;99.90;;;;;;5109567;27;20116;-60
2021/06/26 09:29:52;;;;;;;13.02;7.28;;;20.30;99.90;;;;;;5088754;28;20075;-60
2021/06/26 09:32:35;;;;;;;11.15;6.35;;;19.90;99.90;;;;;;5089060;28;20054;-59
2021/06/26 09:35:01;;;;;;;11.95;6.25;;;19.80;99.90;;;;;;5106836;28;20138;-60
2021/06/26 09:37:29;;;;;;;10.30;5.75;;;19.50;99.90;;;;;;5100674;28;20035;-62
2021/06/26 09:40:00;;;;;;;15.50;5.80;;;19.40;99.90;;;;;;5095324;28;20026;-63
2021/06/26 09:42:25;;;;;;;11.88;6.35;;;20.10;99.90;;;;;;5096493;28;20024;-62
2021/06/26 09:44:55;;;;;;;14.20;6.15;;;20.40;99.90;;;;;;5095880;28;20141;-60
2021/06/26 09:47:31;;;;;;;10.38;5.90;;;20.30;99.90;;;;;;5094906;28;20032;-61
2021/06/26 09:50:17;;;;;;;10.38;5.30;;;20.20;99.90;;;;;;5103169;28;20073;-63
2021/06/26 09:52:49;;;;;;;24.60;5.85;;;20.40;99.90;;;;;;5095553;28;20024;-62
2021/06/26 09:55:14;;;;;;;10.32;5.45;;;20.30;99.90;;;;;;5087315;28;20521;-60
2021/06/26 09:57:40;;;;;;;7.97;5.13;;;20.30;99.90;;;;;;5099062;28;20040;-60
2021/06/26 10:00:08;;;;;;;11.82;5.53;;;20.10;99.90;;;;;;5098066;28;20035;-62
2021/06/26 10:02:33;;;;;;;7.38;5.30;;;20.20;99.90;;;;;;5095828;28;20078;-61
2021/06/26 10:05:01;;;;;;;12.02;6.00;;;20.00;99.90;;;;;;5088712;28;20059;-60
2021/06/26 10:07:30;;;;;;;13.57;6.35;;;19.90;99.90;;;;;;5104949;28;20189;-61
2021/06/26 10:09:56;;;;;;;11.13;5.13;;;19.90;99.90;;;;;;5099584;28;20498;-61
2021/06/26 10:12:23;;;;;;;13.15;6.72;;;20.00;99.90;;;;;;5087807;28;20111;-59
2021/06/26 10:14:51;;;;;;;10.15;5.57;;;20.10;99.90;;;;;;5094619;28;20035;-59
2021/06/26 10:17:16;;;;;;;11.48;5.78;;;20.00;99.90;;;;;;5087102;28;20032;-61
2021/06/26 10:19:43;;;;;;;9.32;5.68;;;20.10;99.90;;;;;;5089041;28;20035;-59
2021/06/26 10:22:09;;;;;;;13.98;5.60;;;20.30;99.90;;;;;;5090360;28;20487;-60
2021/06/26 10:24:36;;;;;;;11.48;5.47;;;20.20;99.90;;;;;;5091353;28;20029;-60
2021/06/26 10:27:02;;;;;;;12.85;5.35;;;20.20;99.90;;;;;;5089956;28;20044;-59
2021/06/26 10:29:34;;;;;;;13.05;5.97;;;20.20;99.90;;;;;;5102100;28;20849;-60
2021/06/26 10:32:14;;;;;;;7.82;4.72;;;20.20;99.90;;;;;;5088321;28;20032;-62
2021/06/26 10:34:45;;;;;;;9.02;5.00;;;20.50;99.90;;;;;;5091574;28;20506;-60
2021/06/26 10:37:23;;;;;;;8.07;4.70;;;20.90;99.90;;;;;;5082442;28;20059;-58
2021/06/26 10:40:03;;;;;;;16.60;5.07;;;21.20;99.90;;;;;;5075455;28;20350;-58
2021/06/26 10:42:37;;;;;;;13.00;5.05;;;21.60;99.90;;;;;;5071759;28;20053;-60
2021/06/26 10:45:05;;;;;;;8.73;4.88;;;21.90;99.90;;;;;;5073687;28;20083;-62
2021/06/26 10:47:42;;;;;;;8.77;4.88;;;22.00;99.90;;;;;;5073166;28;20108;-59
2021/06/26 10:50:09;;;;;;;10.68;4.65;;;22.30;99.90;;;;;;5072704;28;20398;-60
2021/06/26 10:52:34;;;;;;;8.23;4.55;;;22.00;99.90;;;;;;5077609;28;20039;-60
2021/06/26 10:55:00;;;;;;;10.60;4.20;;;22.20;99.90;;;;;;5092974;28;20028;-59
2021/06/26 10:57:26;;;;;;;6.95;4.30;;;22.20;99.90;;;;;;5091721;28;20551;-60
2021/06/26 10:59:58;;;;;;;8.90;4.85;;;22.10;99.90;;;;;;5075194;28;20032;-61
2021/06/26 11:02:23;;;;;;;10.10;4.13;;;22.20;99.90;;;;;;5083174;28;20134;-60
2021/06/26 11:04:49;;;;;;;6.57;4.28;;;22.00;99.90;;;;;;5073235;28;20501;-62
2021/06/26 11:07:16;;;;;;;7.80;4.55;;;21.70;99.90;;;;;;5072194;28;20040;-60
2021/06/26 11:09:46;;;;;;;7.82;4.65;;;21.70;99.90;;;;;;5076090;28;20025;-61
2021/06/26 11:12:18;;;;;;;8.18;4.43;;;21.60;99.90;;;;;;5072475;28;20024;-62
2021/06/26 11:14:52;;;;;;;7.78;3.83;;;21.80;99.90;;;;;;5077243;28;20386;-60
2021/06/26 11:17:21;;;;;;;8.77;3.63;;;22.20;99.90;;;;;;5082175;28;20047;-60
2021/06/26 11:19:48;;;;;;;10.07;3.75;;;22.30;99.90;;;;;;5084140;28;20038;-59
2021/06/26 11:22:14;;;;;;;6.28;3.30;;;22.40;99.90;;;;;;5072174;28;20107;-60
2021/06/26 11:24:45;;;;;;;12.10;4.03;;;22.70;99.90;;;;;;5084527;28;20047;-59
2021/06/26 11:27:17;;;;;;;9.07;3.58;;;22.80;99.90;;;;;;5071165;28;20075;-59
2021/06/26 11:29:48;;;;;;;9.05;3.80;;;22.80;99.90;;;;;;5082450;28;20424;-59
2021/06/26 11:32:21;;;;;;;8.23;3.75;;;22.60;99.90;;;;;;5079701;28;20116;-60
2021/06/26 11:35:06;;;;;;;9.45;3.45;;;22.30;99.90;;;;;;5090096;28;20138;-59
2021/06/26 11:37:47;;;;;;;8.10;3.38;;;22.70;99.90;;;;;;5072231;28;20103;-60
2021/06/26 11:40:13;;;;;;;12.40;3.50;;;22.60;99.90;;;;;;5074685;28;20417;-61
2021/06/26 11:42:53;;;;;;;7.70;4.05;;;22.20;99.90;;;;;;5071064;28;20028;-60
2021/06/26 11:45:25;;;;;;;10.07;6.05;;;22.20;99.90;;;;;;5072409;28;20116;-60
2021/06/26 11:48:05;;;;;;;6.35;3.83;;;22.50;99.90;;;;;;5075441;28;20054;-60
2021/06/26 11:50:32;;;;;;;9.02;3.65;;;22.70;99.90;;;;;;5085889;28;20374;-62
2021/06/26 11:53:27;;;;;;;8.73;3.53;;;22.80;99.90;;;;;;5078179;28;20103;-60
2021/06/26 11:55:56;;;;;;;6.80;3.20;;;23.10;99.90;;;;;;5062286;28;20102;-62
2021/06/26 11:58:44;;;;;;;11.02;3.70;;;23.00;99.90;;;;;;5071317;28;20033;-60
2021/06/26 12:01:11;;;;;;;8.80;3.15;;;22.80;99.90;;;;;;5071935;28;20111;-60
2021/06/26 12:03:38;;;;;;;6.93;3.42;;;22.90;99.90;;;;;;5071897;28;20043;-59
2021/06/26 12:06:14;;;;;;;6.65;3.20;;;23.20;99.90;;;;;;5075843;28;20449;-59
2021/06/26 12:08:54;;;;;;;7.75;3.13;;;23.40;99.90;;;;;;5074286;28;20033;-62
2021/06/26 12:11:22;;;;;;;6.22;2.70;;;23.40;99.90;;;;;;5087362;28;20024;-59
2021/06/26 12:13:49;;;;;;;10.90;3.83;;;23.60;99.90;;;;;;5086807;28;20107;-61
2021/06/26 12:16:18;;;;;;;7.18;3.13;;;23.50;99.90;;;;;;5070731;28;20033;-58
2021/06/26 12:18:52;;;;;;;5.25;2.97;;;23.60;99.90;;;;;;5071886;28;20025;-59
2021/06/26 12:21:21;;;;;;;10.60;3.83;;;23.30;99.90;;;;;;5088014;28;20024;-61
2021/06/26 12:23:48;;;;;;;11.70;4.47;;;23.30;99.90;;;;;;5077265;28;20460;-60
2021/06/26 12:26:22;;;;;;;8.25;3.30;;;23.30;99.90;;;;;;5085510;28;20032;-59
2021/06/26 12:28:48;;;;;;;5.70;3.10;;;23.60;99.90;;;;;;5082555;28;20482;-60
2021/06/26 12:31:15;;;;;;;7.35;3.90;;;23.80;99.90;;;;;;5074852;28;20485;-61
2021/06/26 12:33:40;;;;;;;7.32;3.50;;;23.70;99.90;;;;;;5075119;28;20020;-60
2021/06/26 12:36:13;;;;;;;13.18;3.95;;;23.90;99.90;;;;;;5074047;28;20598;-60
2021/06/26 12:38:40;;;;;;;6.25;3.83;;;23.70;99.90;;;;;;5083910;28;20490;-61